createdAt,value
2022-12-19T05:00:31.892Z,79.75
2022-12-19T05:01:31.829Z,79.54
2022-12-19T05:02:31.908Z,79.75
2022-12-19T05:03:31.726Z,79.50
2022-12-19T05:04:31.688Z,79.96
2022-12-19T05:05:32.382Z,80.02
2022-12-19T05:06:31.656Z,79.54
2022-12-19T05:07:31.663Z,80.24
2022-12-19T05:08:31.636Z,79.71
2022-12-19T05:09:31.641Z,79.96
2022-12-19T05:10:31.613Z,79.71
2022-12-19T05:11:36.627Z,79.82
2022-12-19T05:12:31.594Z,79.54
2022-12-19T05:13:31.591Z,80.58
2022-12-19T05:14:31.593Z,80.34
2022-12-19T05:15:31.566Z,80.86
2022-12-19T05:16:31.726Z,79.92
2022-12-19T05:17:31.534Z,80.58
2022-12-19T05:18:31.530Z,80.27
2022-12-19T05:19:31.540Z,80.38
2022-12-19T05:20:31.529Z,80.13
2022-12-19T05:21:31.548Z,80.38
2022-12-19T05:22:36.507Z,80.34
2022-12-19T05:23:31.469Z,81.07
2022-12-19T05:24:32.470Z,80.55
2022-12-19T05:25:31.444Z,80.65
2022-12-19T05:26:31.450Z,80.55
2022-12-19T05:27:31.450Z,80.65
2022-12-19T05:28:31.415Z,81.07
2022-12-19T05:29:31.432Z,81.07
2022-12-19T05:30:32.429Z,81.13
2022-12-19T05:31:31.462Z,81.07
2022-12-19T05:32:32.480Z,81.07
2022-12-19T05:33:36.406Z,81.38
2022-12-19T05:34:31.351Z,80.24
2022-12-19T05:35:31.357Z,81.18
2022-12-19T05:36:32.776Z,81.03
2022-12-19T05:37:31.324Z,80.44
2022-12-19T05:38:31.360Z,80.82
2022-12-19T05:39:31.297Z,80.30
2022-12-19T05:40:31.356Z,79.99
2022-12-19T05:41:31.285Z,80.09
2022-12-19T05:42:31.256Z,79.78
2022-12-19T05:43:31.254Z,79.68
2022-12-19T05:44:36.265Z,79.68
2022-12-19T05:45:31.389Z,80.30
2022-12-19T05:46:31.298Z,80.41
2022-12-19T05:47:31.208Z,79.99
2022-12-19T05:48:31.329Z,79.68
2022-12-19T05:49:31.180Z,79.64
2022-12-19T05:50:31.196Z,79.43
2022-12-19T05:51:31.161Z,79.88
2022-12-19T05:52:31.156Z,80.05
2022-12-19T05:53:31.137Z,79.85
2022-12-19T05:54:31.127Z,80.79
2022-12-19T05:55:36.216Z,80.79
2022-12-19T05:56:31.125Z,80.37
2022-12-19T05:57:31.093Z,80.16
2022-12-19T05:58:31.083Z,80.47
2022-12-19T05:59:31.071Z,79.95
2022-12-19T06:00:31.078Z,80.27
2022-12-19T06:01:31.076Z,80.27
2022-12-19T06:02:31.186Z,80.05
2022-12-19T06:03:31.077Z,80.16
2022-12-19T06:04:31.135Z,80.27
2022-12-19T06:05:31.038Z,80.37
2022-12-19T06:06:36.024Z,80.27
2022-12-19T06:07:30.995Z,80.58
2022-12-19T06:08:30.983Z,80.37
2022-12-19T06:09:30.973Z,80.37
2022-12-19T06:10:30.955Z,80.37
2022-12-19T06:11:30.954Z,80.16
2022-12-19T06:12:30.933Z,80.37
2022-12-19T06:13:30.935Z,80.47
2022-12-19T06:14:30.938Z,80.54
2022-12-19T06:15:30.905Z,80.47
2022-12-19T06:16:30.951Z,80.54
2022-12-19T06:17:36.901Z,80.44
2022-12-19T06:18:30.866Z,80.99
2022-12-19T06:19:30.853Z,80.85
2022-12-19T06:20:30.970Z,80.44
2022-12-19T06:21:30.839Z,80.23
2022-12-19T06:22:30.821Z,81.06
2022-12-19T06:23:30.807Z,81.06
2022-12-19T06:24:31.796Z,80.96
2022-12-19T06:25:30.784Z,81.27
2022-12-19T06:26:30.816Z,80.75
2022-12-19T06:27:30.769Z,81.06
2022-12-19T06:28:35.782Z,80.96
2022-12-19T06:29:30.752Z,80.75
2022-12-19T06:30:30.777Z,81.16
2022-12-19T06:31:30.789Z,80.96
2022-12-19T06:32:34.811Z,81.38
2022-12-19T06:33:31.694Z,81.69
2022-12-19T06:35:02.387Z,81.59
2022-12-19T06:35:31.678Z,81.38
2022-12-19T06:36:30.810Z,81.69
2022-12-19T06:37:30.691Z,81.90
2022-12-19T06:38:30.647Z,81.59
2022-12-19T06:39:35.672Z,81.79
2022-12-19T06:40:30.638Z,82.21
2022-12-19T06:41:30.625Z,82.00
2022-12-19T06:42:30.626Z,81.48
2022-12-19T06:43:30.621Z,82.00
2022-12-19T06:44:30.583Z,82.10
2022-12-19T06:45:30.642Z,81.86
2022-12-19T06:46:30.570Z,81.90
2022-12-19T06:47:30.546Z,81.96
2022-12-19T06:48:30.575Z,81.79
2022-12-19T06:49:30.554Z,82.21
2022-12-19T06:50:35.538Z,81.65
2022-12-19T06:51:30.520Z,82.07
2022-12-19T06:52:30.647Z,81.79
2022-12-19T06:53:30.487Z,82.17
2022-12-19T06:54:30.486Z,81.76
2022-12-19T06:55:30.452Z,81.90
2022-12-19T06:56:30.453Z,81.96
2022-12-19T06:57:30.580Z,82.07
2022-12-19T06:58:30.447Z,82.00
2022-12-19T06:59:30.422Z,82.07
2022-12-19T07:00:31.516Z,82.07
2022-12-19T07:01:35.557Z,81.86
2022-12-19T07:02:30.531Z,81.65
2022-12-19T07:03:30.382Z,81.76
2022-12-19T07:04:30.360Z,82.07
2022-12-19T07:05:30.378Z,82.07
2022-12-19T07:06:30.339Z,81.65
2022-12-19T07:07:30.379Z,82.07
2022-12-19T07:08:30.430Z,82.17
2022-12-19T07:09:30.307Z,82.28
2022-12-19T07:10:30.371Z,82.24
2022-12-19T07:11:30.308Z,82.48
2022-12-19T07:12:35.338Z,82.24
2022-12-19T07:13:30.337Z,82.14
2022-12-19T07:14:30.256Z,82.48
2022-12-19T07:15:30.240Z,82.14
2022-12-19T07:16:30.341Z,82.38
2022-12-19T07:17:30.241Z,82.55
2022-12-19T07:18:30.321Z,82.17
2022-12-19T07:19:30.194Z,82.14
2022-12-19T07:20:30.271Z,82.34
2022-12-19T07:21:30.200Z,82.55
2022-12-19T07:22:30.186Z,82.24
2022-12-19T07:23:35.289Z,82.24
2022-12-19T07:24:30.162Z,82.45
2022-12-19T07:25:30.195Z,82.55
2022-12-19T07:26:30.124Z,82.55
2022-12-19T07:27:35.598Z,82.65
2022-12-19T07:28:31.188Z,82.55
2022-12-19T07:29:30.089Z,82.34
2022-12-19T07:30:30.134Z,82.65
2022-12-19T07:31:30.137Z,82.51
2022-12-19T07:32:30.257Z,82.45
2022-12-19T07:33:30.140Z,82.55
2022-12-19T07:34:35.059Z,82.20
2022-12-19T07:35:30.115Z,82.20
2022-12-19T07:36:30.014Z,82.51
2022-12-19T07:37:29.994Z,82.24
2022-12-19T07:38:30.007Z,82.34
2022-12-19T07:39:30.113Z,82.10
2022-12-19T07:40:30.154Z,82.55
2022-12-19T07:41:29.962Z,82.20
2022-12-19T07:42:32.695Z,81.79
2022-12-19T07:43:29.987Z,81.16
2022-12-19T07:44:29.923Z,81.37
2022-12-19T07:45:35.025Z,81.58
2022-12-19T07:46:29.916Z,81.58
2022-12-19T07:47:29.903Z,81.68
2022-12-19T07:48:29.964Z,81.47
2022-12-19T07:49:29.871Z,81.99
2022-12-19T07:50:29.947Z,82.20
2022-12-19T07:51:29.878Z,81.68
2022-12-19T07:52:29.849Z,82.20
2022-12-19T07:53:29.853Z,82.10
2022-12-19T07:54:29.818Z,81.37
2022-12-19T07:55:29.920Z,82.10
2022-12-19T07:56:34.825Z,81.68
2022-12-19T07:57:29.816Z,82.10
2022-12-19T07:58:29.820Z,82.51
2022-12-19T07:59:35.648Z,82.41
2022-12-19T08:00:30.766Z,82.51
2022-12-19T08:01:29.873Z,82.20
2022-12-19T08:02:29.818Z,82.48
2022-12-19T08:03:29.765Z,82.31
2022-12-19T08:04:29.790Z,82.37
2022-12-19T08:05:29.696Z,82.17
2022-12-19T08:06:29.711Z,82.48
2022-12-19T08:07:34.758Z,82.06
2022-12-19T08:08:29.708Z,81.68
2022-12-19T08:09:29.667Z,81.75
2022-12-19T08:10:29.647Z,81.02
2022-12-19T08:11:29.744Z,81.96
2022-12-19T08:12:29.722Z,81.65
2022-12-19T08:13:33.812Z,81.65
2022-12-19T08:14:30.610Z,81.85
2022-12-19T08:15:29.585Z,81.65
2022-12-19T08:16:29.619Z,81.43
2022-12-19T08:17:29.609Z,81.96
2022-12-19T08:18:34.582Z,81.02
2022-12-19T08:19:29.548Z,82.06
2022-12-19T08:20:29.527Z,82.06
2022-12-19T08:21:29.515Z,81.02
2022-12-19T08:22:29.504Z,81.71
2022-12-19T08:23:29.520Z,81.65
2022-12-19T08:24:29.486Z,81.75
2022-12-19T08:25:29.556Z,81.19
2022-12-19T08:26:32.693Z,81.92
2022-12-19T08:27:30.581Z,81.09
2022-12-19T08:28:29.478Z,81.92
2022-12-19T08:29:34.460Z,81.50
2022-12-19T08:30:29.456Z,81.09
2022-12-19T08:31:29.433Z,81.92
2022-12-19T08:32:29.401Z,81.40
2022-12-19T08:33:29.396Z,81.29
2022-12-19T08:34:29.375Z,81.60
2022-12-19T08:35:29.383Z,81.50
2022-12-19T08:36:29.357Z,81.50
2022-12-19T08:37:29.367Z,81.50
2022-12-19T08:38:29.375Z,81.60
2022-12-19T08:39:29.335Z,80.36
2022-12-19T08:40:35.361Z,81.60
2022-12-19T08:41:29.299Z,81.92
2022-12-19T08:42:29.299Z,81.60
2022-12-19T08:43:29.426Z,81.50
2022-12-19T08:44:29.273Z,81.71
2022-12-19T08:45:29.255Z,81.50
2022-12-19T08:46:29.287Z,81.71
2022-12-19T08:47:29.270Z,81.60
2022-12-19T08:48:29.273Z,81.60
2022-12-19T08:49:29.244Z,81.81
2022-12-19T08:50:29.202Z,81.71
2022-12-19T08:51:34.234Z,81.81
2022-12-19T08:52:30.224Z,81.81
2022-12-19T08:53:29.185Z,81.81
2022-12-19T08:54:29.174Z,81.81
2022-12-19T08:55:29.773Z,81.60
2022-12-19T08:56:29.204Z,81.29
2022-12-19T08:57:29.143Z,81.92
2022-12-19T08:58:29.155Z,80.67
2022-12-19T08:59:30.740Z,82.03
2022-12-19T09:00:29.103Z,81.09
2022-12-19T09:01:29.258Z,80.98
2022-12-19T09:02:34.215Z,81.81
2022-12-19T09:03:36.792Z,81.29
2022-12-19T09:05:59.778Z,81.71
2022-12-19T09:06:00.118Z,81.71
2022-12-19T09:06:30.106Z,81.46
2022-12-19T09:07:29.048Z,81.67
2022-12-19T09:08:29.016Z,81.26
2022-12-19T09:09:29.004Z,81.57
2022-12-19T09:10:29.034Z,81.46
2022-12-19T09:11:29.126Z,81.57
2022-12-19T09:12:28.978Z,81.15
2022-12-19T09:13:33.972Z,81.57
2022-12-19T09:14:29.080Z,81.36
2022-12-19T09:15:29.048Z,81.36
2022-12-19T09:16:29.251Z,81.57
2022-12-19T09:17:28.983Z,81.67
2022-12-19T09:18:28.895Z,81.67
2022-12-19T09:19:28.900Z,81.57
2022-12-19T09:20:28.918Z,81.63
2022-12-19T09:21:28.866Z,80.29
2022-12-19T09:22:29.508Z,80.43
2022-12-19T09:23:28.843Z,81.98
2022-12-19T09:24:33.865Z,81.53
2022-12-19T09:25:29.838Z,81.12
2022-12-19T09:26:28.809Z,81.32
2022-12-19T09:27:28.803Z,81.53
2022-12-19T09:28:28.793Z,81.53
2022-12-19T09:29:33.623Z,81.43
2022-12-19T09:30:30.038Z,81.32
2022-12-19T09:31:28.955Z,81.43
2022-12-19T09:32:28.741Z,81.22
2022-12-19T09:33:28.768Z,81.63
2022-12-19T09:34:37.162Z,81.43
2022-12-19T09:35:34.728Z,81.53
2022-12-19T09:36:28.727Z,81.01
2022-12-19T09:37:28.686Z,80.60
2022-12-19T09:38:28.674Z,81.01
2022-12-19T09:39:28.748Z,80.70
2022-12-19T09:40:28.652Z,80.80
2022-12-19T09:41:28.945Z,81.01
2022-12-19T09:42:28.687Z,80.29
2022-12-19T09:43:28.636Z,80.80
2022-12-19T09:44:28.607Z,80.29
2022-12-19T09:45:31.785Z,80.70
2022-12-19T09:46:33.832Z,80.49
2022-12-19T09:47:28.611Z,80.08
2022-12-19T09:48:28.568Z,80.35
2022-12-19T09:49:28.564Z,80.35
2022-12-19T09:50:28.605Z,80.25
2022-12-19T09:51:28.567Z,80.66
2022-12-19T09:52:30.470Z,80.77
2022-12-19T09:53:28.575Z,80.56
2022-12-19T09:54:28.501Z,80.98
2022-12-19T09:55:28.504Z,80.98
2022-12-19T09:56:28.497Z,80.35
2022-12-19T09:57:33.513Z,80.66
2022-12-19T09:58:28.507Z,80.66
2022-12-19T09:59:37.093Z,80.66
2022-12-19T10:00:29.473Z,80.25
2022-12-19T10:01:28.591Z,80.56
2022-12-19T10:02:28.694Z,80.98
2022-12-19T10:03:28.472Z,80.66
2022-12-19T10:04:28.440Z,80.56
2022-12-19T10:06:06.420Z,80.77
2022-12-19T10:07:22.307Z,80.63
2022-12-19T10:07:49.850Z,80.63
2022-12-19T10:08:36.696Z,80.63
2022-12-19T10:12:24.494Z,80.42
2022-12-19T10:12:37.860Z,80.73
2022-12-19T10:12:43.617Z,80.73
2022-12-19T10:12:45.446Z,80.73
2022-12-19T10:13:29.283Z,80.42
2022-12-19T10:14:28.270Z,80.32
2022-12-19T10:15:28.381Z,80.21
2022-12-19T10:16:28.309Z,80.11
2022-12-19T10:17:28.377Z,80.42
2022-12-19T10:18:29.550Z,80.11
2022-12-19T10:19:33.246Z,80.11
2022-12-19T10:20:28.231Z,80.00
2022-12-19T10:21:58.991Z,80.00
2022-12-19T10:22:29.181Z,80.32
2022-12-19T10:23:29.375Z,80.94
2022-12-19T10:24:34.770Z,80.94
2022-12-19T10:25:29.284Z,80.52
2022-12-19T10:26:30.273Z,80.63
2022-12-19T10:27:28.146Z,80.73
2022-12-19T10:28:28.116Z,80.63
2022-12-19T10:29:28.108Z,80.83
2022-12-19T10:30:33.126Z,80.52
2022-12-19T10:31:28.162Z,80.52
2022-12-19T10:32:28.076Z,80.73
2022-12-19T10:33:28.065Z,80.63
2022-12-19T10:34:28.171Z,80.63
2022-12-19T10:35:28.040Z,80.94
2022-12-19T10:36:55.991Z,81.15
2022-12-19T10:37:39.817Z,81.15
2022-12-19T10:38:29.021Z,81.35
2022-12-19T10:39:27.996Z,81.35
2022-12-19T10:40:28.882Z,81.25
2022-12-19T10:41:33.010Z,81.25
2022-12-19T10:42:27.963Z,81.15
2022-12-19T10:43:33.063Z,81.56
2022-12-19T10:44:28.972Z,81.21
2022-12-19T10:45:27.932Z,81.67
2022-12-19T10:46:28.018Z,81.01
2022-12-19T10:47:27.968Z,81.21
2022-12-19T10:48:30.796Z,81.63
2022-12-19T10:49:27.948Z,81.35
2022-12-19T10:50:28.003Z,81.42
2022-12-19T10:51:27.891Z,81.25
2022-12-19T10:52:32.885Z,81.15
2022-12-19T10:53:27.918Z,81.63
2022-12-19T10:54:33.585Z,81.42
2022-12-19T10:55:28.828Z,81.32
2022-12-19T10:56:34.983Z,81.32
2022-12-19T10:57:28.823Z,81.63
2022-12-19T10:58:27.870Z,81.32
2022-12-19T10:59:27.818Z,81.01
2022-12-19T11:00:27.776Z,81.63
2022-12-19T11:01:28.908Z,81.42
2022-12-19T11:02:27.906Z,81.11
2022-12-19T11:03:32.884Z,81.11
2022-12-19T11:04:27.836Z,81.18
2022-12-19T11:05:27.775Z,81.28
2022-12-19T11:06:27.861Z,81.28
2022-12-19T11:07:27.711Z,81.18
2022-12-19T11:08:27.746Z,81.28
2022-12-19T11:09:27.777Z,81.14
2022-12-19T11:11:11.132Z,80.93
2022-12-19T11:14:40.945Z,81.04
2022-12-19T11:16:59.594Z,80.52
2022-12-19T11:18:05.025Z,80.52
2022-12-19T11:19:01.263Z,80.41
2022-12-19T11:21:21.395Z,80.31
2022-12-19T11:21:39.250Z,80.52
2022-12-19T11:22:49.880Z,80.31
2022-12-19T11:27:06.625Z,80.62
2022-12-19T11:29:27.192Z,80.62
2022-12-19T11:29:33.290Z,80.41
2022-12-19T11:29:34.083Z,80.52
2022-12-19T11:29:39.119Z,80.83
2022-12-19T11:29:54.116Z,80.47
2022-12-19T11:30:37.984Z,80.37
2022-12-19T11:30:39.550Z,80.37
2022-12-19T11:30:41.367Z,80.68
2022-12-19T11:30:44.328Z,80.21
2022-12-19T11:30:48.672Z,80.52
2022-12-19T11:31:51.068Z,80.06
2022-12-19T11:32:33.905Z,79.96
2022-12-19T11:32:45.865Z,79.85
2022-12-19T11:33:28.535Z,79.75
2022-12-19T11:34:27.376Z,80.06
2022-12-19T11:35:37.155Z,79.75
2022-12-19T11:36:33.382Z,79.75
2022-12-19T11:37:27.367Z,79.96
2022-12-19T11:38:27.453Z,79.85
2022-12-19T11:39:27.328Z,79.75
2022-12-19T11:40:27.308Z,79.85
2022-12-19T11:41:27.309Z,79.65
2022-12-19T11:42:27.323Z,79.85
2022-12-19T11:43:44.982Z,79.75
2022-12-19T11:44:28.319Z,79.65
2022-12-19T11:45:27.265Z,79.75
2022-12-19T11:46:28.249Z,79.82
2022-12-19T11:47:32.303Z,79.65
2022-12-19T11:48:27.224Z,79.61
2022-12-19T11:49:27.215Z,79.92
2022-12-19T11:50:27.210Z,79.92
2022-12-19T11:51:27.191Z,79.51
2022-12-19T11:53:02.954Z,79.51
2022-12-19T11:53:28.193Z,79.51
2022-12-19T11:54:27.184Z,79.20
2022-12-19T11:55:27.163Z,78.89
2022-12-19T11:56:27.152Z,78.89
2022-12-19T11:57:27.121Z,79.20
2022-12-19T11:58:32.238Z,79.10
2022-12-19T11:59:28.101Z,79.06
2022-12-19T12:00:27.094Z,78.89
2022-12-19T12:01:27.126Z,79.51
2022-12-19T12:02:28.064Z,79.61
2022-12-19T12:03:27.168Z,79.16
2022-12-19T12:04:27.089Z,78.96
2022-12-19T12:05:27.040Z,78.96
2022-12-19T12:06:31.455Z,78.85
2022-12-19T12:07:44.443Z,79.27
2022-12-19T12:11:24.840Z,78.85
2022-12-19T12:12:52.546Z,78.75
2022-12-19T12:15:56.109Z,78.85
2022-12-19T12:18:50.147Z,78.85
2022-12-19T12:21:00.210Z,79.06
2022-12-19T12:22:11.995Z,78.96
2022-12-19T12:23:18.334Z,79.47
2022-12-19T12:26:24.342Z,78.96
2022-12-19T12:31:00.020Z,78.96
2022-12-19T12:31:03.929Z,78.96
2022-12-19T12:31:13.256Z,78.96
2022-12-19T12:31:14.589Z,78.96
2022-12-19T12:31:16.503Z,78.54
2022-12-19T12:31:18.863Z,79.16
2022-12-19T12:31:19.171Z,78.96
2022-12-19T12:31:38.990Z,78.71
2022-12-19T12:31:39.146Z,78.85
2022-12-19T12:31:40.357Z,78.92
2022-12-19T12:31:45.829Z,79.27
2022-12-19T12:31:47.733Z,79.27
2022-12-19T12:31:48.514Z,78.85
2022-12-19T12:31:50.060Z,79.06
2022-12-19T12:31:50.267Z,78.85
2022-12-19T12:35:16.516Z,78.30
2022-12-19T12:35:34.427Z,78.30
2022-12-19T12:35:35.104Z,78.71
2022-12-19T12:35:51.515Z,78.30
2022-12-19T12:38:13.759Z,77.98
2022-12-19T12:38:14.547Z,77.74
2022-12-19T12:38:28.668Z,78.05
2022-12-19T12:39:33.316Z,78.26
2022-12-19T12:40:27.651Z,78.26
2022-12-19T12:41:26.673Z,78.05
2022-12-19T12:42:31.646Z,77.95
2022-12-19T12:43:26.633Z,78.05
2022-12-19T12:44:30.669Z,78.26
2022-12-19T12:45:27.583Z,78.26
2022-12-19T12:46:26.675Z,78.26
2022-12-19T12:47:26.569Z,78.26
2022-12-19T12:48:26.565Z,78.16
2022-12-19T12:49:26.569Z,77.95
2022-12-19T12:50:26.547Z,77.84
2022-12-19T12:51:26.552Z,77.64
2022-12-19T12:52:26.510Z,78.26
2022-12-19T12:53:31.588Z,78.05
2022-12-19T12:54:26.539Z,77.95
2022-12-19T12:55:26.493Z,78.16
2022-12-19T12:56:26.498Z,77.84
2022-12-19T12:57:26.495Z,78.36
2022-12-19T12:58:26.445Z,78.05
2022-12-19T12:59:26.458Z,78.05
2022-12-19T13:00:26.457Z,78.26
2022-12-19T13:01:26.606Z,78.05
2022-12-19T13:02:26.540Z,77.95
2022-12-19T13:03:26.429Z,78.16
2022-12-19T13:04:31.437Z,78.05
2022-12-19T13:05:26.364Z,77.84
2022-12-19T13:06:26.358Z,77.95
2022-12-19T13:07:26.378Z,77.95
2022-12-19T13:08:26.336Z,77.91
2022-12-19T13:09:26.340Z,78.16
2022-12-19T13:10:26.354Z,78.22
2022-12-19T13:11:26.304Z,78.26
2022-12-19T13:12:26.303Z,78.26
2022-12-19T13:13:26.439Z,77.74
2022-12-19T13:14:26.342Z,78.05
2022-12-19T13:15:31.367Z,78.05
2022-12-19T13:16:26.322Z,78.36
2022-12-19T13:17:26.240Z,77.95
2022-12-19T13:18:26.251Z,78.26
2022-12-19T13:19:28.743Z,78.57
2022-12-19T13:20:27.821Z,78.05
2022-12-19T13:21:26.194Z,77.70
2022-12-19T13:22:26.176Z,78.26
2022-12-19T13:23:27.164Z,78.16
2022-12-19T13:24:26.536Z,78.05
2022-12-19T13:25:26.190Z,77.95
2022-12-19T13:26:32.152Z,78.05
2022-12-19T13:27:26.130Z,78.12
2022-12-19T13:28:26.123Z,77.95
2022-12-19T13:29:26.118Z,77.91
2022-12-19T13:30:26.172Z,78.22
2022-12-19T13:31:26.185Z,78.16
2022-12-19T13:32:26.076Z,78.36
2022-12-19T13:33:26.054Z,78.12
2022-12-19T13:34:26.054Z,78.22
2022-12-19T13:39:31.945Z,78.33
2022-12-19T13:39:48.889Z,78.47
2022-12-19T13:39:51.497Z,78.36
2022-12-19T13:39:52.181Z,78.22
2022-12-19T13:39:58.316Z,78.16
2022-12-19T13:40:32.313Z,78.43
2022-12-19T13:41:27.019Z,78.36
2022-12-19T13:42:26.022Z,78.67
2022-12-19T13:43:25.945Z,78.47
2022-12-19T13:44:25.963Z,78.47
2022-12-19T13:45:25.982Z,78.43
2022-12-19T13:46:26.011Z,78.74
2022-12-19T13:47:25.910Z,78.78
2022-12-19T13:48:30.911Z,78.74
2022-12-19T13:49:27.478Z,78.78
2022-12-19T13:50:25.959Z,78.74
2022-12-19T13:51:25.876Z,78.78
2022-12-19T13:52:25.906Z,78.88
2022-12-19T13:53:25.835Z,78.95
2022-12-19T13:54:25.825Z,78.99
2022-12-19T13:55:25.810Z,78.95
2022-12-19T13:56:25.812Z,78.64
2022-12-19T13:57:25.822Z,79.36
2022-12-19T13:58:28.837Z,78.64
2022-12-19T13:59:30.822Z,78.99
2022-12-19T14:00:25.780Z,78.85
2022-12-19T14:01:25.903Z,78.95
2022-12-19T14:02:25.971Z,78.95
2022-12-19T14:03:25.958Z,78.95
2022-12-19T14:04:25.727Z,78.78
2022-12-19T14:05:33.787Z,78.74
2022-12-19T14:06:26.702Z,78.85
2022-12-19T14:07:36.099Z,78.53
2022-12-19T14:08:26.674Z,79.05
2022-12-19T14:11:24.254Z,79.05
2022-12-19T14:11:35.019Z,78.74
2022-12-19T14:11:55.384Z,78.74
2022-12-19T14:13:43.256Z,78.53
2022-12-19T14:13:43.457Z,78.74
2022-12-19T14:14:28.437Z,78.74
2022-12-19T14:15:25.598Z,78.95
2022-12-19T14:16:35.010Z,78.74
2022-12-19T14:17:26.620Z,78.95
2022-12-19T14:18:42.753Z,79.05
2022-12-19T14:19:26.865Z,78.85
2022-12-19T14:22:02.429Z,79.16
2022-12-19T14:22:05.975Z,78.74
2022-12-19T14:22:27.242Z,79.16
2022-12-19T14:23:36.995Z,78.95
2022-12-19T14:24:26.498Z,79.26
2022-12-19T14:28:14.210Z,79.47
2022-12-19T14:28:23.962Z,79.47
2022-12-19T14:28:28.012Z,79.47
2022-12-19T14:28:30.114Z,79.47
2022-12-19T14:29:32.049Z,79.50
2022-12-19T14:30:32.602Z,79.77
2022-12-19T14:31:26.528Z,79.67
2022-12-19T14:33:45.483Z,79.71
2022-12-19T14:33:45.853Z,79.71
2022-12-19T14:36:06.441Z,80.02
2022-12-19T14:36:27.001Z,80.02
2022-12-19T14:37:54.691Z,79.71
2022-12-19T14:39:22.601Z,79.77
2022-12-19T14:39:29.517Z,80.74
2022-12-19T14:40:25.336Z,80.64
2022-12-19T14:41:25.306Z,80.22
2022-12-19T14:43:57.893Z,80.22
2022-12-19T14:44:00.434Z,80.33
2022-12-19T14:52:25.699Z,80.22
2022-12-19T14:52:51.579Z,80.33
2022-12-19T14:53:10.880Z,80.74
2022-12-19T14:53:51.488Z,81.05
2022-12-19T14:54:05.505Z,80.95
2022-12-19T14:54:13.169Z,80.85
2022-12-19T14:54:22.084Z,80.74
2022-12-19T14:54:22.464Z,80.78
2022-12-19T14:54:31.520Z,80.78
2022-12-19T14:54:37.410Z,80.85
2022-12-19T14:56:04.285Z,80.95
2022-12-19T14:56:57.531Z,81.16
2022-12-19T14:58:51.301Z,81.30
2022-12-19T14:58:53.971Z,81.20
2022-12-19T14:59:26.171Z,81.20
2022-12-19T15:00:50.667Z,81.20
2022-12-19T15:01:26.586Z,80.88
2022-12-19T15:02:27.958Z,81.09
2022-12-19T15:03:26.213Z,80.36
2022-12-19T15:04:49.021Z,81.40
2022-12-19T15:05:31.079Z,81.20
2022-12-19T15:07:08.331Z,81.30
2022-12-19T15:07:26.050Z,81.44
2022-12-19T15:09:17.767Z,81.30
2022-12-19T15:11:08.481Z,81.13
2022-12-19T15:11:08.672Z,81.13
2022-12-19T15:11:53.334Z,81.71
2022-12-19T15:14:48.563Z,81.54
2022-12-19T15:14:48.758Z,81.96
2022-12-19T15:14:53.184Z,82.06
2022-12-19T15:15:25.925Z,82.06
2022-12-19T15:16:30.050Z,82.06
2022-12-19T15:17:24.898Z,81.85
2022-12-19T15:18:24.909Z,81.75
2022-12-19T15:19:24.952Z,81.75
2022-12-19T15:20:24.913Z,81.79
2022-12-19T15:21:24.859Z,82.06
2022-12-19T15:22:24.845Z,82.31
2022-12-19T15:23:24.845Z,82.41
2022-12-19T15:24:24.828Z,82.51
2022-12-19T15:26:01.412Z,82.48
2022-12-19T15:26:25.797Z,82.62
2022-12-19T15:27:29.818Z,82.68
2022-12-19T15:28:24.789Z,83.14
2022-12-19T15:29:24.824Z,83.14
2022-12-19T15:30:24.778Z,82.93
2022-12-19T15:31:24.837Z,82.93
2022-12-19T15:32:24.734Z,83.24
2022-12-19T15:33:24.740Z,83.14
2022-12-19T15:34:48.408Z,82.97
2022-12-19T15:35:25.777Z,83.14
2022-12-19T15:36:24.715Z,83.07
2022-12-19T15:37:24.682Z,83.28
2022-12-19T15:38:29.746Z,83.38
2022-12-19T15:39:24.671Z,83.34
2022-12-19T15:40:24.663Z,83.55
2022-12-19T15:41:24.636Z,83.59
2022-12-19T15:42:24.716Z,83.28
2022-12-19T15:44:01.826Z,83.48
2022-12-19T15:44:25.657Z,83.45
2022-12-19T15:45:24.641Z,83.65
2022-12-19T15:46:24.641Z,83.48
2022-12-19T15:47:24.586Z,83.65
2022-12-19T15:48:24.598Z,83.48
2022-12-19T15:49:29.587Z,83.59
2022-12-19T15:50:24.568Z,83.28
2022-12-19T15:51:24.528Z,84.42
2022-12-19T15:52:24.533Z,83.28
2022-12-19T15:53:38.075Z,83.90
2022-12-19T15:54:51.938Z,84.00
2022-12-19T15:55:25.491Z,83.90
2022-12-19T15:56:24.505Z,83.90
2022-12-19T15:57:24.491Z,83.90
2022-12-19T15:58:24.455Z,84.00
2022-12-19T15:59:24.453Z,83.80
2022-12-19T16:00:29.445Z,83.80
2022-12-19T16:01:24.507Z,83.80
2022-12-19T16:02:24.621Z,83.80
2022-12-19T16:03:25.540Z,83.90
2022-12-19T16:04:24.624Z,84.11
2022-12-19T16:05:24.431Z,84.21
2022-12-19T16:06:24.361Z,84.42
2022-12-19T16:07:24.349Z,84.21
2022-12-19T16:08:24.368Z,84.31
2022-12-19T16:09:24.347Z,84.21
2022-12-19T16:10:24.356Z,83.80
2022-12-19T16:11:29.347Z,83.76
2022-12-19T16:12:24.322Z,84.11
2022-12-19T16:13:24.287Z,84.11
2022-12-19T16:14:24.317Z,83.90
2022-12-19T16:15:24.309Z,83.90
2022-12-19T16:16:24.353Z,84.00
2022-12-19T16:17:24.257Z,84.21
2022-12-19T16:18:24.230Z,84.11
2022-12-19T16:19:24.249Z,83.80
2022-12-19T16:20:24.226Z,83.80
2022-12-19T16:21:31.274Z,84.21
2022-12-19T16:22:30.219Z,84.11
2022-12-19T16:23:24.189Z,84.73
2022-12-19T16:24:24.205Z,85.14
2022-12-19T16:25:24.179Z,84.73
2022-12-19T16:26:24.138Z,84.94
2022-12-19T16:27:24.174Z,84.73
2022-12-19T16:28:24.114Z,84.83
2022-12-19T16:29:24.118Z,84.73
2022-12-19T16:30:24.131Z,84.94
2022-12-19T16:31:24.149Z,85.14
2022-12-19T16:32:24.737Z,84.94
2022-12-19T16:33:29.093Z,84.42
2022-12-19T16:34:24.054Z,85.25
2022-12-19T16:35:54.564Z,85.46
2022-12-19T16:36:25.054Z,85.25
2022-12-19T16:37:30.224Z,85.46
2022-12-19T16:38:25.001Z,84.73
2022-12-19T16:39:24.045Z,84.83
2022-12-19T16:40:24.020Z,84.83
2022-12-19T16:41:23.985Z,84.63
2022-12-19T16:42:23.961Z,84.52
2022-12-19T16:43:23.945Z,84.63
2022-12-19T16:44:28.984Z,85.35
2022-12-19T16:45:23.950Z,84.83
2022-12-19T16:46:24.082Z,84.83
2022-12-19T16:47:23.991Z,85.14
2022-12-19T16:48:23.889Z,84.31
2022-12-19T16:49:23.904Z,84.83
2022-12-19T16:50:23.885Z,85.00
2022-12-19T16:51:23.908Z,85.11
2022-12-19T16:52:23.845Z,85.04
2022-12-19T16:53:23.837Z,84.63
2022-12-19T16:54:23.829Z,85.14
2022-12-19T16:55:28.861Z,84.63
2022-12-19T16:56:23.829Z,85.00
2022-12-19T16:57:23.787Z,85.35
2022-12-19T16:58:23.779Z,84.73
2022-12-19T16:59:23.770Z,84.63
2022-12-19T17:00:23.758Z,84.83
2022-12-19T17:01:23.916Z,84.42
2022-12-19T17:02:23.900Z,85.66
2022-12-19T17:03:23.779Z,84.94
2022-12-19T17:04:23.714Z,84.83
2022-12-19T17:05:23.711Z,84.42
2022-12-19T17:06:28.725Z,85.35
2022-12-19T17:07:23.748Z,84.83
2022-12-19T17:08:23.728Z,84.83
2022-12-19T17:09:23.672Z,84.83
2022-12-19T17:10:26.376Z,85.25
2022-12-19T17:11:23.693Z,84.94
2022-12-19T17:12:23.624Z,84.63
2022-12-19T17:13:23.616Z,84.90
2022-12-19T17:14:23.603Z,84.83
2022-12-19T17:15:24.591Z,84.83
2022-12-19T17:16:23.663Z,84.52
2022-12-19T17:17:28.626Z,84.83
2022-12-19T17:18:24.561Z,84.59
2022-12-19T17:19:23.547Z,84.38
2022-12-19T17:20:23.551Z,84.69
2022-12-19T17:21:23.535Z,84.83
2022-12-19T17:22:23.535Z,85.04
2022-12-19T17:23:23.497Z,85.31
2022-12-19T17:24:23.494Z,85.25
2022-12-19T17:25:23.484Z,85.35
2022-12-19T17:26:23.473Z,84.73
2022-12-19T17:27:23.499Z,84.52
2022-12-19T17:28:28.472Z,84.83
2022-12-19T17:29:23.509Z,84.83
2022-12-19T17:30:23.443Z,84.90
2022-12-19T17:31:23.569Z,84.83
2022-12-19T17:32:24.558Z,84.52
2022-12-19T17:33:23.387Z,84.94
2022-12-19T17:34:23.379Z,84.63
2022-12-19T17:35:27.733Z,85.25
2022-12-19T17:36:26.048Z,85.25
2022-12-19T17:37:23.357Z,85.04
2022-12-19T17:38:23.337Z,85.14
2022-12-19T17:39:28.353Z,84.94
2022-12-19T17:40:23.322Z,84.94
2022-12-19T17:41:23.304Z,85.77
2022-12-19T17:42:23.307Z,85.87
2022-12-19T17:43:23.309Z,85.31
2022-12-19T17:44:23.286Z,85.87
2022-12-19T17:45:23.299Z,85.42
2022-12-19T17:46:23.341Z,85.14
2022-12-19T17:47:23.244Z,85.46
2022-12-19T17:48:23.228Z,85.21
2022-12-19T17:49:23.214Z,84.90
2022-12-19T17:50:28.220Z,85.21
2022-12-19T17:51:23.188Z,84.69
2022-12-19T17:52:23.195Z,84.65
2022-12-19T17:53:23.189Z,84.86
2022-12-19T17:54:23.172Z,83.93
2022-12-19T17:55:23.143Z,83.72
2022-12-19T17:56:23.141Z,83.83